Time;durP1;ratioP1;P1;durP2;ratioP2;P2;SDS_P1;SDS_P2;PMS_P1;PMS_P2;Temp;Humidity;BMP_temperature;BMP_pressure;BME280_temperature;BME280_humidity;BME280_pressure;Samples;Min_cycle;Max_cycle;Signal;HPM_P1;HPM_P2
2023/02/10 00:03:27;;;;;;;37.03;30.73;;;1.30;94.10;;;;;;10374044;28;20485;-78
2023/02/10 00:08:29;;;;;;;34.30;29.47;;;1.30;93.90;;;;;;10356780;28;20302;-77
2023/02/10 00:13:32;;;;;;;37.93;30.70;;;1.30;93.60;;;;;;10368247;28;20248;-79
2023/02/10 00:18:35;;;;;;;36.53;31.60;;;1.30;94.40;;;;;;10372073;28;20327;-77
2023/02/10 00:23:37;;;;;;;34.87;30.40;;;1.30;94.30;;;;;;10373525;28;20324;-76
2023/02/10 00:28:39;;;;;;;36.90;30.50;;;1.40;93.90;;;;;;10372891;28;20254;-79
2023/02/10 00:33:43;;;;;;;37.87;29.50;;;1.40;93.10;;;;;;10378895;28;20230;-80
2023/02/10 00:38:45;;;;;;;35.20;30.20;;;1.20;93.10;;;;;;10379402;28;20203;-80
2023/02/10 00:43:48;;;;;;;36.10;31.57;;;1.10;94.00;;;;;;10379377;28;20222;-79
2023/02/10 00:48:51;;;;;;;38.40;30.60;;;1.10;94.30;;;;;;10379155;28;20237;-79
2023/02/10 00:53:53;;;;;;;35.17;30.40;;;1.10;93.60;;;;;;10364653;28;20327;-79
2023/02/10 00:58:55;;;;;;;39.30;31.67;;;1.10;93.40;;;;;;10374858;28;20205;-81
2023/02/10 01:03:59;;;;;;;34.23;30.57;;;0.90;93.70;;;;;;10366321;28;20221;-79
2023/02/10 01:09:03;;;;;;;40.20;32.97;;;0.80;94.00;;;;;;10388153;28;20218;-79
2023/02/10 01:14:05;;;;;;;36.50;30.57;;;0.80;94.10;;;;;;10362962;28;20505;-79
2023/02/10 01:19:09;;;;;;;39.30;32.70;;;0.80;93.70;;;;;;10380836;28;20247;-79
2023/02/10 01:24:11;;;;;;;41.77;33.43;;;0.80;93.60;;;;;;10380271;28;20266;-80
2023/02/10 01:29:13;;;;;;;41.77;32.33;;;0.70;93.80;;;;;;10380693;28;20272;-81
2023/02/10 01:34:17;;;;;;;42.60;33.67;;;0.50;94.30;;;;;;10390017;28;20229;-81
2023/02/10 01:39:19;;;;;;;47.20;37.50;;;0.40;95.30;;;;;;10388411;28;20203;-81
2023/02/10 01:44:59;;;;;;;47.47;37.03;;;0.50;95.90;;;;;;10371822;28;20685;-81
2023/02/10 01:50:02;;;;;;;41.50;32.90;;;0.70;95.70;;;;;;10391582;28;20220;-81
2023/02/10 01:55:07;;;;;;;39.07;32.23;;;0.90;94.00;;;;;;10460819;23;20272;-82
2023/02/10 02:00:11;;;;;;;42.03;34.60;;;0.90;94.40;;;;;;10416508;28;20223;-82
2023/02/10 02:05:39;;;;;;;41.93;33.60;;;0.80;94.90;;;;;;10432436;28;20684;-82
2023/02/10 02:11:02;;;;;;;41.33;35.07;;;0.90;94.50;;;;;;10411837;28;20280;-82
2023/02/10 02:16:15;;;;;;;41.83;34.43;;;0.90;94.30;;;;;;10416216;28;20293;-83
2023/02/10 02:22:00;;;;;;;44.60;34.33;;;1.00;94.00;;;;;;10432424;28;20643;-82
2023/02/10 02:27:34;;;;;;;36.17;31.50;;;1.00;93.50;;;;;;10415566;28;20194;-81
2023/02/10 02:32:43;;;;;;;37.83;31.50;;;0.90;93.40;;;;;;10422184;28;20319;-82
2023/02/10 02:37:47;;;;;;;40.00;32.73;;;0.80;93.50;;;;;;10394793;28;20199;-78
2023/02/10 02:42:50;;;;;;;42.47;33.40;;;0.60;93.60;;;;;;10418734;28;20270;-83
2023/02/10 02:48:10;;;;;;;40.97;32.93;;;0.50;93.70;;;;;;10428606;28;20321;-82
2023/02/10 02:53:22;;;;;;;36.90;31.47;;;0.40;93.90;;;;;;10427297;28;20233;-82
2023/02/10 02:58:32;;;;;;;42.63;35.40;;;0.30;93.80;;;;;;10433007;28;20229;-82
2023/02/10 03:03:36;;;;;;;39.00;32.40;;;0.20;94.00;;;;;;10442807;28;20247;-82
2023/02/10 03:08:41;;;;;;;37.00;31.67;;;0.20;94.30;;;;;;10460179;28;20203;-81
2023/02/10 03:13:43;;;;;;;41.13;33.03;;;0.10;94.70;;;;;;10445734;28;20812;-81
2023/02/10 03:18:47;;;;;;;40.83;35.43;;;0.20;94.20;;;;;;10442852;28;20737;-82
2023/02/10 03:23:49;;;;;;;40.93;35.20;;;0.20;94.40;;;;;;10450532;28;20229;-82
2023/02/10 03:28:51;;;;;;;45.73;35.20;;;0.20;94.40;;;;;;10421809;28;20241;-82
2023/02/10 03:33:54;;;;;;;37.00;32.33;;;0.20;94.10;;;;;;10473453;28;20259;-82
2023/02/10 03:38:56;;;;;;;43.00;34.37;;;0.20;94.20;;;;;;10465030;28;20224;-83
2023/02/10 03:43:58;;;;;;;45.17;34.00;;;0.20;94.60;;;;;;10445133;28;20292;-80
2023/02/10 03:49:02;;;;;;;42.73;35.17;;;0.20;94.50;;;;;;10445767;28;20279;-83
2023/02/10 03:54:04;;;;;;;39.00;33.00;;;0.30;95.00;;;;;;10452532;28;20730;-81
2023/02/10 03:59:07;;;;;;;39.60;33.37;;;0.40;94.00;;;;;;10468208;28;20902;-79
2023/02/10 04:04:10;;;;;;;36.20;32.27;;;0.40;93.90;;;;;;10447031;28;20243;-79
2023/02/10 04:09:12;;;;;;;37.00;32.17;;;0.30;94.10;;;;;;10463474;28;20281;-79
2023/02/10 04:14:14;;;;;;;42.27;33.37;;;0.20;94.10;;;;;;10427977;28;20220;-79
2023/02/10 04:19:17;;;;;;;37.50;32.57;;;0.10;94.10;;;;;;10461188;28;20390;-79
2023/02/10 04:24:19;;;;;;;36.50;32.53;;;0.00;94.40;;;;;;10461743;28;20248;-79
2023/02/10 04:29:22;;;;;;;49.57;38.33;;;0.00;94.70;;;;;;10443698;28;20311;-79
2023/02/10 04:34:25;;;;;;;41.70;33.17;;;0.00;95.30;;;;;;10462153;28;20259;-79
2023/02/10 04:39:27;;;;;;;41.90;34.97;;;0.10;94.80;;;;;;10462178;28;20536;-79
2023/02/10 04:44:29;;;;;;;37.07;29.87;;;0.20;95.10;;;;;;10463358;28;20221;-79
2023/02/10 04:49:33;;;;;;;34.23;30.40;;;0.20;94.60;;;;;;10477163;28;20249;-79
2023/02/10 04:54:35;;;;;;;34.03;30.20;;;0.20;94.10;;;;;;10474870;28;20222;-79
2023/02/10 04:59:37;;;;;;;98.53;48.67;;;0.20;94.30;;;;;;10473949;28;20256;-79
2023/02/10 05:04:41;;;;;;;38.20;30.53;;;0.20;94.60;;;;;;10430036;28;20234;-79
2023/02/10 05:09:43;;;;;;;37.57;31.30;;;0.20;94.10;;;;;;10460405;28;20218;-79
2023/02/10 05:14:45;;;;;;;33.90;29.20;;;0.10;94.40;;;;;;10459764;28;20246;-79
2023/02/10 05:19:48;;;;;;;34.70;30.37;;;0.10;94.00;;;;;;10462056;28;20271;-78
2023/02/10 05:24:51;;;;;;;32.70;28.50;;;0.00;94.40;;;;;;10456263;28;20296;-77
2023/02/10 05:29:53;;;;;;;34.10;29.57;;;-0.10;94.50;;;;;;10435051;28;20233;-79
2023/02/10 05:34:58;;;;;;;34.00;28.07;;;-0.10;94.90;;;;;;10452520;28;20215;-82
2023/02/10 05:40:01;;;;;;;33.97;28.07;;;0.00;94.20;;;;;;10435182;28;20287;-78
2023/02/10 05:45:04;;;;;;;34.77;28.07;;;-0.10;94.80;;;;;;10439708;28;20615;-79
2023/02/10 05:50:08;;;;;;;40.27;33.77;;;-0.10;94.80;;;;;;10451645;28;20212;-81
2023/02/10 05:55:11;;;;;;;33.20;27.37;;;-0.10;94.70;;;;;;10407180;28;20227;-81
2023/02/10 06:00:14;;;;;;;32.97;26.33;;;0.00;94.20;;;;;;10430714;28;20196;-80
2023/02/10 06:05:18;;;;;;;31.23;27.30;;;-0.10;94.00;;;;;;10424650;28;20221;-81
2023/02/10 06:10:20;;;;;;;37.43;29.43;;;-0.10;94.90;;;;;;10436916;28;20305;-80
2023/02/10 06:15:22;;;;;;;30.80;26.97;;;-0.10;94.60;;;;;;10456525;28;20745;-82
2023/02/10 06:20:25;;;;;;;29.20;26.07;;;-0.10;94.40;;;;;;10422321;28;20197;-80
2023/02/10 06:25:27;;;;;;;33.17;27.50;;;-0.10;94.50;;;;;;10447676;28;20257;-81
2023/02/10 06:30:30;;;;;;;33.43;28.20;;;-0.10;94.60;;;;;;10439103;28;20607;-81
2023/02/10 06:35:33;;;;;;;32.40;27.10;;;0.00;95.00;;;;;;10421567;28;20221;-81
2023/02/10 06:40:35;;;;;;;34.03;29.27;;;0.00;94.20;;;;;;10420407;28;20205;-81
2023/02/10 06:45:37;;;;;;;30.10;26.00;;;0.10;94.60;;;;;;10407732;28;20208;-81
2023/02/10 06:50:41;;;;;;;31.83;27.13;;;0.10;94.30;;;;;;10456403;28;20717;-79
2023/02/10 06:55:43;;;;;;;30.87;27.07;;;0.10;94.00;;;;;;10402979;28;20224;-79
2023/02/10 07:00:45;;;;;;;32.03;28.13;;;0.00;94.30;;;;;;10440020;28;20215;-81
2023/02/10 07:05:48;;;;;;;32.80;28.00;;;0.00;94.40;;;;;;10452587;28;20211;-77
2023/02/10 07:10:50;;;;;;;33.60;27.63;;;0.00;94.20;;;;;;10450515;28;20269;-78
2023/02/10 07:15:52;;;;;;;32.77;27.23;;;0.10;94.10;;;;;;10452344;28;20590;-78
2023/02/10 07:20:56;;;;;;;30.87;27.47;;;0.10;93.90;;;;;;10457050;28;20234;-78
2023/02/10 07:25:58;;;;;;;32.97;28.00;;;0.10;94.30;;;;;;10451630;28;20192;-79
2023/02/10 07:31:00;;;;;;;30.90;27.03;;;0.10;94.10;;;;;;10458613;28;20237;-80
2023/02/10 07:36:04;;;;;;;28.67;25.40;;;0.10;94.10;;;;;;10440920;28;20197;-78
2023/02/10 07:41:08;;;;;;;32.63;27.83;;;0.20;94.70;;;;;;10439792;28;20593;-78
2023/02/10 07:46:09;;;;;;;30.90;25.83;;;0.30;95.00;;;;;;10458585;28;20193;-79
2023/02/10 07:51:14;;;;;;;34.57;27.90;;;0.40;94.20;;;;;;10478630;22;20319;-80
2023/02/10 08:02:03;;;;;;;28.83;25.77;;;0.60;94.40;;;;;;10591757;27;20549;-78
2023/02/10 08:07:05;;;;;;;32.40;25.97;;;0.70;93.90;;;;;;10549116;28;20205;-78
2023/02/10 08:12:07;;;;;;;32.93;28.20;;;0.70;94.50;;;;;;10566041;28;20215;-77
2023/02/10 08:17:11;;;;;;;33.57;28.97;;;0.70;95.10;;;;;;10534320;28;20198;-78
2023/02/10 08:22:13;;;;;;;31.53;27.83;;;0.80;95.00;;;;;;10566220;28;20306;-81
2023/02/10 08:27:15;;;;;;;34.17;28.40;;;0.90;94.70;;;;;;10545246;28;20233;-76
2023/02/10 08:32:19;;;;;;;35.67;29.97;;;1.00;95.30;;;;;;10532574;28;20706;-78
2023/02/10 08:37:21;;;;;;;32.93;28.87;;;1.10;95.20;;;;;;10567084;28;20200;-80
2023/02/10 08:42:23;;;;;;;37.40;29.13;;;1.20;95.20;;;;;;10530813;28;20214;-80
2023/02/10 08:47:27;;;;;;;35.60;29.97;;;1.30;95.20;;;;;;10538866;28;20192;-80
2023/02/10 08:52:29;;;;;;;33.40;28.43;;;1.40;95.10;;;;;;10569549;28;20230;-77
2023/02/10 08:57:31;;;;;;;37.20;30.20;;;1.50;95.30;;;;;;10570479;28;20219;-77
2023/02/10 09:02:35;;;;;;;42.50;30.63;;;1.70;95.20;;;;;;10558958;28;20217;-78
2023/02/10 09:07:38;;;;;;;33.37;28.77;;;1.80;95.20;;;;;;10534283;28;20196;-77
2023/02/10 09:12:40;;;;;;;38.23;31.93;;;2.00;95.40;;;;;;10544215;28;20209;-77
2023/02/10 09:17:44;;;;;;;42.00;29.97;;;2.10;95.10;;;;;;10505528;28;20304;-78
2023/02/10 09:22:47;;;;;;;37.17;29.93;;;2.30;94.90;;;;;;10469127;28;20590;-79
2023/02/10 09:27:51;;;;;;;38.70;30.30;;;2.40;95.10;;;;;;10516920;28;20665;-78
2023/02/10 09:32:55;;;;;;;35.20;29.90;;;2.60;95.00;;;;;;10547711;28;20211;-78
2023/02/10 09:37:57;;;;;;;36.80;29.33;;;2.70;94.70;;;;;;10506409;28;20700;-78
2023/02/10 09:43:07;;;;;;;51.57;32.70;;;2.90;94.60;;;;;;10549474;28;20204;-78
2023/02/10 09:48:26;;;;;;;39.03;31.93;;;3.00;94.40;;;;;;10518858;28;20191;-79
2023/02/10 09:53:31;;;;;;;41.17;34.20;;;3.20;94.40;;;;;;10506285;28;20216;-78
2023/02/10 09:58:37;;;;;;;53.83;42.93;;;3.30;94.40;;;;;;10541477;28;20225;-78
2023/02/10 10:03:46;;;;;;;40.00;32.90;;;3.40;94.50;;;;;;10504582;28;20221;-78
2023/02/10 10:09:02;;;;;;;38.03;32.97;;;3.50;94.10;;;;;;10520497;28;20188;-78
2023/02/10 10:14:06;;;;;;;36.60;31.40;;;3.60;93.60;;;;;;10507530;28;20613;-78
2023/02/10 10:19:18;;;;;;;37.30;29.80;;;3.60;94.30;;;;;;10539194;28;20221;-78
2023/02/10 10:24:34;;;;;;;45.90;33.30;;;3.70;94.20;;;;;;10513268;28;20248;-79
2023/02/10 10:29:45;;;;;;;38.07;31.23;;;3.70;94.50;;;;;;10531095;28;20197;-79
2023/02/10 10:34:53;;;;;;;40.33;34.97;;;3.80;94.20;;;;;;10519034;28;20232;-78
2023/02/10 10:39:58;;;;;;;43.33;33.90;;;3.90;94.10;;;;;;10534497;28;20216;-78
2023/02/10 10:45:06;;;;;;;46.13;34.47;;;3.90;94.30;;;;;;10529924;28;20285;-78
2023/02/10 10:50:15;;;;;;;41.70;35.30;;;4.00;94.00;;;;;;10559112;28;20219;-78
2023/02/10 10:55:22;;;;;;;41.43;35.90;;;4.00;93.80;;;;;;10541112;28;20223;-79
2023/02/10 11:00:27;;;;;;;36.67;31.20;;;4.10;94.20;;;;;;10514211;28;20317;-79
2023/02/10 11:05:33;;;;;;;36.70;32.70;;;4.20;94.00;;;;;;10532119;28;20287;-78
2023/02/10 11:10:47;;;;;;;38.00;33.00;;;4.20;94.10;;;;;;10544706;28;20240;-78
2023/02/10 11:15:49;;;;;;;32.93;28.40;;;4.20;94.00;;;;;;10514030;28;20203;-78
2023/02/10 11:20:58;;;;;;;38.00;31.93;;;4.20;93.90;;;;;;10511325;28;20215;-79
2023/02/10 11:26:02;;;;;;;42.73;31.67;;;4.30;93.70;;;;;;10531809;28;20199;-78
2023/02/10 11:31:07;;;;;;;45.60;37.83;;;4.40;93.70;;;;;;10506708;28;20220;-78
2023/02/10 11:36:12;;;;;;;36.07;31.07;;;4.40;93.90;;;;;;10506650;28;20277;-79
2023/02/10 11:41:14;;;;;;;39.50;31.50;;;4.50;93.40;;;;;;10511336;28;20216;-79
2023/02/10 11:46:22;;;;;;;34.00;28.57;;;4.70;91.90;;;;;;10531316;28;20192;-79
2023/02/10 11:51:26;;;;;;;39.80;29.63;;;4.80;90.60;;;;;;10528834;28;20308;-79
2023/02/10 12:02:01;;;;;;;35.87;30.07;;;4.90;90.90;;;;;;10479801;28;20227;-78
2023/02/10 12:07:16;;;;;;;36.63;28.80;;;4.90;90.90;;;;;;10511749;28;20195;-78
2023/02/10 12:12:25;;;;;;;33.43;28.70;;;5.00;90.50;;;;;;10515530;28;20248;-78
2023/02/10 12:17:30;;;;;;;39.67;29.43;;;5.00;90.10;;;;;;10529881;28;20286;-78
2023/02/10 12:22:43;;;;;;;35.30;28.97;;;5.00;90.70;;;;;;10524915;28;20221;-78
2023/02/10 12:27:54;;;;;;;32.73;26.90;;;5.10;90.50;;;;;;10508211;28;20200;-79
2023/02/10 12:33:15;;;;;;;31.37;27.20;;;5.10;91.10;;;;;;10493387;28;20650;-78
2023/02/10 12:38:32;;;;;;;31.43;26.50;;;5.10;87.60;;;;;;10528460;28;20230;-78
2023/02/10 12:43:51;;;;;;;31.70;27.60;;;5.10;89.60;;;;;;10517303;28;20219;-78
2023/02/10 12:49:17;;;;;;;33.30;28.33;;;5.10;90.40;;;;;;10496740;28;20189;-78
2023/02/10 12:54:24;;;;;;;29.87;26.60;;;5.10;91.00;;;;;;10535854;28;20285;-80
2023/02/10 12:59:30;;;;;;;31.80;25.50;;;5.10;91.20;;;;;;10551714;28;20214;-80
2023/02/10 13:04:36;;;;;;;34.53;28.30;;;5.20;90.20;;;;;;10572698;28;20219;-79
2023/02/10 13:09:43;;;;;;;29.23;25.90;;;5.20;88.90;;;;;;10564954;28;20185;-78
2023/02/10 13:14:50;;;;;;;32.07;26.07;;;5.20;90.50;;;;;;10515567;28;20586;-78
2023/02/10 13:20:01;;;;;;;29.60;25.07;;;5.20;90.10;;;;;;10485613;28;20241;-78
2023/02/10 13:25:12;;;;;;;31.10;26.23;;;5.20;89.60;;;;;;10498895;28;20217;-79
2023/02/10 13:30:48;;;;;;;38.80;26.90;;;5.30;88.50;;;;;;10502270;28;20617;-77
2023/02/10 13:35:53;;;;;;;29.43;24.93;;;5.30;88.60;;;;;;10532478;28;20200;-77
2023/02/10 13:41:41;;;;;;;29.50;25.30;;;5.30;87.70;;;;;;10538479;28;20680;-78
2023/02/10 13:46:23;;;;;;;31.93;24.50;;;5.40;88.60;;;;;;10487302;28;20253;-78
2023/02/10 13:51:34;;;;;;;29.70;25.33;;;5.40;88.20;;;;;;10507423;28;20276;-78
2023/02/10 13:56:40;;;;;;;27.43;24.37;;;5.50;88.70;;;;;;10537055;28;20193;-78
2023/02/10 14:01:48;;;;;;;27.80;24.00;;;5.50;88.40;;;;;;10532340;28;20261;-78
2023/02/10 14:06:53;;;;;;;26.07;23.23;;;5.50;89.90;;;;;;10535404;28;20193;-79
2023/02/10 14:11:59;;;;;;;29.43;24.13;;;5.50;90.30;;;;;;10548857;28;20235;-78
2023/02/10 14:17:07;;;;;;;26.60;23.80;;;5.50;88.80;;;;;;10537894;28;20199;-80
2023/02/10 14:22:23;;;;;;;25.57;22.17;;;5.50;91.30;;;;;;10563622;28;20221;-79
2023/02/10 14:27:28;;;;;;;27.17;23.20;;;5.50;90.20;;;;;;10507457;28;20189;-79
2023/02/10 14:32:31;;;;;;;27.17;23.10;;;5.50;88.30;;;;;;10495831;28;20218;-79
2023/02/10 14:37:33;;;;;;;31.53;27.77;;;5.50;87.70;;;;;;10537862;28;20725;-79
2023/02/10 14:42:37;;;;;;;25.93;23.10;;;5.60;87.60;;;;;;10543569;28;20230;-79
2023/02/10 14:47:45;;;;;;;26.07;22.50;;;5.60;89.70;;;;;;10505227;28;20202;-78
2023/02/10 14:52:50;;;;;;;24.57;21.80;;;5.70;87.90;;;;;;10509526;28;20222;-79
2023/02/10 14:58:06;;;;;;;28.60;22.57;;;5.70;86.40;;;;;;10561503;28;20206;-79
2023/02/10 15:03:12;;;;;;;25.07;21.20;;;5.70;89.20;;;;;;10542873;28;20268;-78
2023/02/10 15:08:19;;;;;;;26.90;22.53;;;5.70;88.60;;;;;;10463828;28;20193;-80
2023/02/10 15:13:28;;;;;;;24.80;22.10;;;5.70;89.70;;;;;;10472600;28;20294;-78
2023/02/10 15:18:33;;;;;;;25.30;22.40;;;5.70;89.40;;;;;;10481280;28;20189;-79
2023/02/10 15:23:35;;;;;;;28.23;22.67;;;5.70;88.20;;;;;;10501036;28;20282;-79
2023/02/10 15:28:39;;;;;;;29.23;24.57;;;5.70;88.90;;;;;;10505419;28;20300;-78
2023/02/10 15:33:52;;;;;;;28.10;24.20;;;5.70;90.60;;;;;;10463414;28;20223;-78
2023/02/10 15:39:02;;;;;;;31.13;25.00;;;5.60;89.20;;;;;;10508281;28;20226;-78
2023/02/10 15:44:28;;;;;;;26.97;23.83;;;5.60;87.10;;;;;;10511323;28;20506;-80
2023/02/10 15:49:33;;;;;;;29.83;24.20;;;5.60;87.20;;;;;;10489096;28;20189;-78
2023/02/10 15:54:41;;;;;;;31.90;25.40;;;5.60;87.40;;;;;;10522679;28;20296;-78
2023/02/10 15:59:50;;;;;;;34.90;26.80;;;5.40;88.30;;;;;;10467693;28;20218;-77
2023/02/10 16:04:53;;;;;;;27.67;23.27;;;5.30;88.90;;;;;;10465086;28;20311;-78
2023/02/10 16:09:56;;;;;;;27.53;23.70;;;5.20;89.00;;;;;;10498947;28;20207;-78
2023/02/10 16:15:02;;;;;;;29.00;23.47;;;5.00;89.50;;;;;;10509430;28;20218;-80
2023/02/10 16:20:06;;;;;;;28.70;24.60;;;4.90;89.90;;;;;;10523475;28;20607;-80
2023/02/10 16:25:08;;;;;;;30.63;25.30;;;4.80;90.20;;;;;;10517695;28;20226;-80
2023/02/10 16:30:17;;;;;;;28.00;24.00;;;4.70;90.10;;;;;;10526376;28;20193;-80
2023/02/10 16:35:20;;;;;;;29.93;22.70;;;4.60;89.90;;;;;;10517313;28;20280;-79
2023/02/10 16:40:25;;;;;;;26.87;22.23;;;4.50;89.50;;;;;;10513974;28;20679;-78
2023/02/10 16:45:31;;;;;;;29.67;23.90;;;4.40;90.00;;;;;;10518285;27;20271;-77
2023/02/10 16:50:36;;;;;;;29.43;24.83;;;4.30;89.70;;;;;;10539797;28;20203;-77
2023/02/10 16:55:41;;;;;;;29.97;24.10;;;4.30;89.90;;;;;;10495678;28;20304;-78
2023/02/10 17:00:45;;;;;;;30.17;23.80;;;4.20;89.80;;;;;;10524422;28;20286;-78
2023/02/10 17:05:47;;;;;;;33.67;27.53;;;3.90;90.10;;;;;;10485592;28;20193;-78
2023/02/10 17:10:51;;;;;;;31.63;26.93;;;3.70;90.60;;;;;;10523928;28;20229;-78
2023/02/10 17:15:54;;;;;;;31.57;27.00;;;3.70;90.60;;;;;;10490342;28;20246;-78
2023/02/10 17:20:57;;;;;;;32.40;27.73;;;3.60;91.00;;;;;;10532599;28;20568;-78
2023/02/10 17:25:59;;;;;;;37.13;30.77;;;3.50;91.50;;;;;;10489309;28;20186;-78
2023/02/10 17:31:05;;;;;;;40.20;30.33;;;3.50;91.30;;;;;;10527990;28;20216;-79
2023/02/10 17:36:08;;;;;;;39.57;31.40;;;3.50;91.40;;;;;;10510344;28;20208;-79
2023/02/10 17:41:10;;;;;;;33.67;28.50;;;3.50;91.60;;;;;;10497836;28;20300;-78
2023/02/10 17:46:15;;;;;;;34.03;28.77;;;3.50;91.60;;;;;;10483231;28;20212;-78
2023/02/10 17:51:18;;;;;;;34.63;29.93;;;3.40;91.60;;;;;;10506652;28;20300;-78
2023/02/10 17:56:21;;;;;;;34.57;28.17;;;3.40;91.70;;;;;;10469950;28;20681;-78
2023/02/10 18:01:30;;;;;;;34.73;29.33;;;3.20;92.20;;;;;;10513797;28;20218;-78
2023/02/10 18:06:33;;;;;;;35.77;30.40;;;3.20;92.70;;;;;;10545624;28;20216;-81
2023/02/10 18:11:35;;;;;;;38.30;30.97;;;3.20;92.60;;;;;;10496232;28;20288;-80
2023/02/10 18:16:38;;;;;;;36.53;27.53;;;3.30;92.60;;;;;;10517382;28;20249;-80
2023/02/10 18:21:41;;;;;;;34.43;29.80;;;3.40;92.30;;;;;;10532831;28;20213;-81
2023/02/10 18:26:43;;;;;;;29.93;26.57;;;3.40;92.20;;;;;;10464017;28;20249;-80
2023/02/10 18:31:47;;;;;;;33.23;27.47;;;3.40;92.10;;;;;;10510197;28;20280;-81
2023/02/10 18:36:49;;;;;;;31.77;26.47;;;3.40;91.90;;;;;;10517572;28;20221;-80
2023/02/10 18:41:51;;;;;;;33.77;25.17;;;3.40;92.10;;;;;;10505968;28;20226;-80
2023/02/10 18:46:55;;;;;;;30.17;25.57;;;3.30;92.20;;;;;;10528213;28;20212;-80
2023/02/10 18:51:57;;;;;;;28.97;24.97;;;3.30;92.50;;;;;;10528441;28;20220;-81
2023/02/10 18:56:59;;;;;;;29.67;25.00;;;3.40;92.40;;;;;;10550447;28;20686;-80
2023/02/10 19:02:03;;;;;;;33.70;26.33;;;3.30;92.00;;;;;;10529054;28;20303;-82
2023/02/10 19:07:05;;;;;;;31.60;26.57;;;3.30;92.20;;;;;;10497459;28;20197;-82
2023/02/10 19:12:08;;;;;;;34.77;27.30;;;3.20;92.20;;;;;;10473056;28;20213;-81
2023/02/10 19:17:12;;;;;;;34.63;27.17;;;3.00;92.30;;;;;;10529926;28;20203;-81
2023/02/10 19:22:14;;;;;;;31.07;25.80;;;3.00;92.60;;;;;;10543500;28;20278;-82
2023/02/10 19:27:16;;;;;;;32.10;26.70;;;2.90;92.60;;;;;;10510434;28;20247;-82
2023/02/10 19:32:21;;;;;;;37.23;28.87;;;2.80;93.00;;;;;;10517165;28;20243;-81
2023/02/10 19:37:23;;;;;;;38.10;30.47;;;2.70;92.90;;;;;;10479216;28;20225;-81
2023/02/10 19:42:26;;;;;;;38.00;31.23;;;2.70;92.80;;;;;;10531865;28;20267;-81
2023/02/10 19:47:29;;;;;;;47.67;37.97;;;2.70;93.20;;;;;;10506375;28;20197;-81
2023/02/10 19:52:31;;;;;;;36.97;30.23;;;2.70;93.20;;;;;;10519327;28;20307;-82
2023/02/10 19:57:34;;;;;;;37.60;29.63;;;2.70;93.50;;;;;;10506743;28;20613;-81
2023/02/10 20:02:38;;;;;;;31.90;26.27;;;2.80;93.60;;;;;;10539113;28;20228;-81
2023/02/10 20:07:40;;;;;;;34.90;27.30;;;2.90;92.80;;;;;;10484219;28;20224;-81
2023/02/10 20:12:42;;;;;;;32.90;26.53;;;2.90;93.00;;;;;;10515575;28;20217;-81
2023/02/10 20:17:46;;;;;;;42.50;32.30;;;2.90;93.10;;;;;;10496957;28;20193;-80
2023/02/10 20:22:49;;;;;;;50.73;35.70;;;3.00;92.50;;;;;;10524129;28;20243;-81
2023/02/10 20:27:52;;;;;;;34.83;27.27;;;3.00;92.80;;;;;;10533549;28;20198;-79
2023/02/10 20:32:55;;;;;;;36.03;28.47;;;3.00;93.10;;;;;;10499562;28;20213;-80
2023/02/10 20:37:58;;;;;;;42.77;34.30;;;3.00;93.30;;;;;;10515997;28;20649;-81
2023/02/10 20:43:00;;;;;;;40.13;31.70;;;3.00;92.30;;;;;;10528297;28;20220;-81
2023/02/10 20:48:04;;;;;;;37.10;29.37;;;3.00;92.10;;;;;;10519419;28;20318;-81
2023/02/10 20:53:06;;;;;;;45.23;35.60;;;2.80;92.60;;;;;;10487999;28;20208;-81
2023/02/10 20:58:08;;;;;;;36.80;28.47;;;2.80;93.20;;;;;;10538787;28;20235;-82
2023/02/10 21:03:13;;;;;;;33.83;27.20;;;2.80;93.20;;;;;;10541173;28;20244;-81
2023/02/10 21:08:18;;;;;;;31.77;26.30;;;2.80;93.10;;;;;;10546130;28;20253;-81
2023/02/10 21:13:22;;;;;;;32.30;24.90;;;2.80;93.00;;;;;;10510960;28;20230;-82
2023/02/10 21:18:26;;;;;;;30.40;24.60;;;2.80;92.50;;;;;;10526496;28;20669;-80
2023/02/10 21:23:30;;;;;;;28.40;22.93;;;2.90;92.80;;;;;;10503593;28;20228;-80
2023/02/10 21:28:34;;;;;;;30.37;25.20;;;2.80;92.80;;;;;;10506248;28;20197;-80
2023/02/10 21:33:39;;;;;;;32.23;23.67;;;2.80;92.60;;;;;;10511154;28;20210;-80
2023/02/10 21:38:41;;;;;;;32.10;23.80;;;2.80;92.90;;;;;;10564672;28;20189;-80
2023/02/10 21:43:43;;;;;;;28.13;23.40;;;2.80;93.00;;;;;;10540626;28;20231;-79
2023/02/10 21:48:46;;;;;;;28.77;24.20;;;2.70;92.80;;;;;;10549327;28;20218;-80
2023/02/10 21:53:48;;;;;;;31.20;23.50;;;2.70;93.10;;;;;;10548208;28;20221;-80
2023/02/10 21:58:51;;;;;;;26.00;21.87;;;2.70;93.20;;;;;;10511983;28;20233;-80
2023/02/10 22:03:54;;;;;;;28.53;21.87;;;2.70;92.80;;;;;;10523173;28;20239;-80
2023/02/10 22:08:56;;;;;;;26.40;22.10;;;2.70;92.90;;;;;;10535135;28;20199;-77
2023/02/10 22:13:59;;;;;;;27.10;22.53;;;2.70;92.60;;;;;;10553600;28;20232;-78
2023/02/10 22:19:02;;;;;;;29.17;20.97;;;2.60;92.80;;;;;;10536159;28;20188;-79
2023/02/10 22:24:05;;;;;;;25.30;19.23;;;2.30;93.00;;;;;;10550855;28;20216;-79
2023/02/10 22:29:07;;;;;;;23.73;19.90;;;2.20;93.30;;;;;;10534263;28;20225;-79
2023/02/10 22:34:11;;;;;;;46.43;28.20;;;2.00;93.90;;;;;;10505484;28;20307;-79
2023/02/10 22:39:13;;;;;;;23.77;19.37;;;2.10;94.50;;;;;;10504770;28;20247;-79
2023/02/10 22:44:16;;;;;;;22.83;19.80;;;2.30;93.60;;;;;;10535794;28;20247;-79
2023/02/10 22:49:19;;;;;;;26.90;21.00;;;2.30;93.20;;;;;;10545916;28;20201;-78
2023/02/10 22:54:21;;;;;;;40.00;23.27;;;2.30;93.30;;;;;;10497501;28;20506;-78
2023/02/10 22:59:23;;;;;;;28.73;20.63;;;2.10;94.00;;;;;;10502804;28;20215;-77
2023/02/10 23:04:26;;;;;;;26.20;22.60;;;2.20;93.90;;;;;;10479136;28;20223;-79
2023/02/10 23:09:29;;;;;;;31.10;23.90;;;2.20;94.10;;;;;;10512265;28;20219;-78
2023/02/10 23:14:31;;;;;;;41.33;28.70;;;2.30;93.70;;;;;;10497647;28;20275;-78
2023/02/10 23:19:34;;;;;;;42.37;29.10;;;2.30;93.20;;;;;;10499503;28;20204;-79
2023/02/10 23:24:37;;;;;;;41.40;29.17;;;2.20;93.60;;;;;;10504241;28;20684;-78
2023/02/10 23:29:39;;;;;;;34.60;29.30;;;2.10;93.80;;;;;;10502150;28;20197;-78
2023/02/10 23:34:43;;;;;;;55.83;33.37;;;2.10;93.70;;;;;;10528032;28;20243;-78
2023/02/10 23:39:45;;;;;;;33.67;28.37;;;2.10;93.70;;;;;;10544040;28;20204;-79
2023/02/10 23:44:47;;;;;;;47.77;33.00;;;2.10;93.30;;;;;;10499105;28;20312;-79
2023/02/10 23:49:51;;;;;;;35.07;29.50;;;2.10;94.20;;;;;;10494978;28;20207;-80
2023/02/10 23:55:01;;;;;;;37.23;30.83;;;2.10;93.70;;;;;;10548047;28;20208;-80
